Time;durP1;ratioP1;P1;durP2;ratioP2;P2;SDS_P1;SDS_P2;PMS_P1;PMS_P2;Temp;Humidity;BMP_temperature;BMP_pressure;BME280_temperature;BME280_humidity;BME280_pressure;Samples;Min_cycle;Max_cycle;Signal;HPM_P1;HPM_P2
2024/03/24 00:01:59;;;;;;;26.95;13.40;;;;;;;7.51;73.14;99519.13;123413;1099;104296;-75
2024/03/24 00:04:30;;;;;;;26.10;12.43;;;;;;;7.50;73.44;99516.47;123384;1099;108173;-75
2024/03/24 00:07:01;;;;;;;24.03;12.37;;;;;;;7.49;72.80;99510.34;123429;1099;104328;-75
2024/03/24 00:09:33;;;;;;;27.23;12.30;;;;;;;7.48;73.32;99505.98;123489;1099;104255;-76
2024/03/24 00:12:05;;;;;;;27.37;13.00;;;;;;;7.49;73.96;99509.47;123199;1099;104360;-75
2024/03/24 00:14:36;;;;;;;29.43;13.27;;;;;;;7.47;73.36;99506.80;123380;1099;104302;-75
2024/03/24 00:17:08;;;;;;;25.77;12.63;;;;;;;7.46;73.08;99504.14;123405;1099;104472;-74
2024/03/24 00:19:39;;;;;;;30.10;13.03;;;;;;;7.47;73.84;99495.48;123498;1099;104305;-74
2024/03/24 00:22:11;;;;;;;27.13;13.67;;;;;;;7.45;73.62;99498.05;123526;1099;104357;-75
2024/03/24 00:24:42;;;;;;;26.03;12.60;;;;;;;7.47;73.37;99495.48;123567;1099;104344;-74
2024/03/24 00:27:13;;;;;;;22.30;11.63;;;;;;;7.45;73.58;99482.39;123467;1099;104286;-75
2024/03/24 00:29:45;;;;;;;24.27;12.17;;;;;;;7.43;73.08;99489.27;123391;1099;104355;-75
2024/03/24 00:32:18;;;;;;;25.62;12.80;;;;;;;7.42;73.45;99473.55;123483;1099;104358;-75
2024/03/24 00:34:49;;;;;;;24.20;11.67;;;;;;;7.42;73.77;99478.77;123408;1098;104254;-75
2024/03/24 00:37:21;;;;;;;25.57;11.83;;;;;;;7.42;73.40;99473.55;123428;1099;104254;-74
2024/03/24 00:39:52;;;;;;;24.07;12.03;;;;;;;7.41;73.80;99471.80;123141;1099;104309;-74
2024/03/24 00:42:24;;;;;;;24.10;12.13;;;;;;;7.40;73.38;99462.19;123424;1099;104444;-75
2024/03/24 00:44:55;;;;;;;25.47;12.23;;;;;;;7.37;73.43;99463.88;123498;1099;104283;-75
2024/03/24 00:47:26;;;;;;;24.23;12.37;;;;;;;7.35;73.44;99455.13;123455;1099;104697;-75
2024/03/24 00:49:58;;;;;;;24.37;11.67;;;;;;;7.34;73.31;99455.95;123465;1099;104281;-75
2024/03/24 00:52:29;;;;;;;25.13;11.87;;;;;;;7.33;73.72;99454.16;123488;1099;104358;-75
2024/03/24 00:55:01;;;;;;;26.40;12.27;;;;;;;7.32;73.43;99452.41;123363;1098;104290;-75
2024/03/24 00:57:32;;;;;;;24.93;12.13;;;;;;;7.29;73.61;99454.92;123419;1098;104283;-75
2024/03/24 01:00:06;;;;;;;27.03;12.47;;;;;;;7.27;73.37;99451.36;123471;1099;104274;-75
2024/03/24 01:02:38;;;;;;;21.97;11.30;;;;;;;7.27;73.94;99453.09;123532;1099;104345;-76
2024/03/24 01:05:10;;;;;;;25.07;12.53;;;;;;;7.26;73.66;99453.91;123462;1099;104276;-74
2024/03/24 01:07:41;;;;;;;25.83;12.30;;;;;;;7.23;74.18;99452.11;123195;1099;104315;-74
2024/03/24 01:10:13;;;;;;;26.17;12.20;;;;;;;7.23;73.85;99443.38;123238;1099;104347;-75
2024/03/24 01:12:49;;;;;;;24.92;11.93;;;;;;;7.21;73.90;99448.55;123400;1099;104255;-74
2024/03/24 01:15:20;;;;;;;23.40;11.78;;;;;;;7.22;73.79;99439.02;123516;1099;104363;-74
2024/03/24 01:17:52;;;;;;;25.00;11.73;;;;;;;7.23;73.76;99433.85;123473;1099;104322;-74
2024/03/24 01:20:23;;;;;;;24.25;11.50;;;;;;;7.24;73.62;99439.95;123450;1099;104339;-75
2024/03/24 01:22:54;;;;;;;25.83;11.97;;;;;;;7.23;73.83;99432.95;123501;1099;104249;-74
2024/03/24 01:25:26;;;;;;;24.93;11.70;;;;;;;7.23;73.87;99443.38;123388;1099;104408;-75
2024/03/24 01:27:57;;;;;;;23.67;11.80;;;;;;;7.24;74.04;99438.21;123513;1099;104286;-75
2024/03/24 01:30:29;;;;;;;23.70;11.93;;;;;;;7.24;73.85;99435.60;123460;1099;104284;-75
2024/03/24 01:33:00;;;;;;;23.15;12.05;;;;;;;7.24;74.05;99440.82;123476;1099;104299;-76
2024/03/24 01:35:32;;;;;;;24.77;11.80;;;;;;;7.24;73.75;99442.55;123234;1099;104310;-74
2024/03/24 01:38:03;;;;;;;23.10;11.03;;;;;;;7.24;74.05;99430.38;123425;1099;104296;-74
2024/03/24 01:40:34;;;;;;;23.50;11.90;;;;;;;7.23;73.89;99433.85;123445;1099;104845;-75
2024/03/24 01:43:09;;;;;;;26.20;12.27;;;;;;;7.22;74.09;99431.20;123459;1099;104816;-75
2024/03/24 01:45:40;;;;;;;23.30;12.07;;;;;;;7.17;74.06;99431.05;123175;1102;104702;-74
2024/03/24 01:48:12;;;;;;;26.93;12.40;;;;;;;7.14;73.79;99423.99;123464;1098;104274;-75
2024/03/24 01:50:44;;;;;;;27.33;11.57;;;;;;;7.13;74.00;99429.16;123464;1099;104224;-74
2024/03/24 01:53:15;;;;;;;23.33;12.13;;;;;;;7.13;74.10;99426.55;123414;1099;104338;-74
2024/03/24 01:55:47;;;;;;;25.27;12.07;;;;;;;7.13;74.09;99422.21;123473;1099;104445;-74
2024/03/24 01:58:18;;;;;;;24.37;12.17;;;;;;;7.12;74.29;99415.24;123149;1100;104690;-74
2024/03/24 02:00:50;;;;;;;26.57;12.47;;;;;;;7.10;74.23;99416.02;123105;1102;104719;-74
2024/03/24 02:03:21;;;;;;;24.73;12.57;;;;;;;7.11;74.37;99417.80;123153;1099;104281;-75
2024/03/24 02:05:53;;;;;;;25.07;11.97;;;;;;;7.08;74.27;99420.31;123496;1098;104280;-75
2024/03/24 02:08:24;;;;;;;21.60;10.97;;;;;;;7.08;74.39;99418.58;123642;1098;104265;-75
2024/03/24 02:10:55;;;;;;;24.57;11.40;;;;;;;7.11;74.61;99423.89;123383;1099;104791;-75
2024/03/24 02:13:27;;;;;;;23.93;11.67;;;;;;;7.12;74.10;99425.68;123470;1099;104730;-76
2024/03/24 02:15:58;;;;;;;22.60;11.73;;;;;;;7.09;74.05;99415.14;123435;1099;104290;-76
2024/03/24 02:18:29;;;;;;;25.17;12.27;;;;;;;7.05;74.40;99418.48;123641;1099;104326;-74
2024/03/24 02:21:01;;;;;;;25.30;11.87;;;;;;;7.03;74.24;99414.94;123446;1099;104336;-75
2024/03/24 02:23:32;;;;;;;23.93;11.50;;;;;;;7.01;74.46;99422.72;123153;1099;104350;-75
2024/03/24 02:26:04;;;;;;;22.33;11.50;;;;;;;7.02;74.57;99419.25;123397;1099;104323;-75
2024/03/24 02:28:36;;;;;;;25.27;12.23;;;;;;;7.03;74.43;99417.55;123457;1099;104354;-76
2024/03/24 02:31:07;;;;;;;24.20;12.40;;;;;;;7.01;74.59;99422.72;123524;1099;104271;-75
2024/03/24 02:33:38;;;;;;;23.83;12.17;;;;;;;6.99;74.23;99408.72;123440;1099;104342;-75
2024/03/24 02:36:11;;;;;;;24.43;11.67;;;;;;;6.99;74.49;99408.72;123389;1099;104434;-75
2024/03/24 02:38:42;;;;;;;23.17;11.70;;;;;;;6.98;74.53;99406.06;123427;1099;104832;-74
2024/03/24 02:41:14;;;;;;;23.53;11.27;;;;;;;6.95;74.70;99405.96;123467;1099;104338;-75
2024/03/24 02:43:45;;;;;;;25.87;11.80;;;;;;;6.94;74.53;99407.70;123473;1099;104296;-75
2024/03/24 02:46:16;;;;;;;23.05;11.00;;;;;;;6.92;74.71;99398.03;123419;1099;104296;-75
2024/03/24 02:48:48;;;;;;;26.13;12.40;;;;;;;6.92;74.57;99401.55;123403;1098;104472;-75
2024/03/24 02:51:19;;;;;;;24.27;12.47;;;;;;;6.93;74.87;99397.21;123465;1099;104374;-75
2024/03/24 02:53:50;;;;;;;22.83;11.90;;;;;;;6.91;74.75;99391.07;123565;1099;104271;-75
2024/03/24 02:56:22;;;;;;;23.80;11.40;;;;;;;6.91;74.82;99388.47;123470;1099;104249;-75
2024/03/24 02:58:53;;;;;;;22.90;11.63;;;;;;;6.90;74.69;99397.11;123468;1099;104373;-74
2024/03/24 03:01:25;;;;;;;25.70;11.70;;;;;;;6.90;74.62;99391.89;123402;1099;104449;-74
2024/03/24 03:03:56;;;;;;;23.50;11.60;;;;;;;6.90;75.19;99381.47;123162;1099;104709;-74
2024/03/24 03:06:27;;;;;;;23.97;11.40;;;;;;;6.90;75.04;99386.67;123375;1099;104335;-75
2024/03/24 03:08:59;;;;;;;25.00;11.60;;;;;;;6.90;75.26;99389.28;123428;1099;104223;-76
2024/03/24 03:11:30;;;;;;;24.20;12.20;;;;;;;6.90;75.08;99389.28;123455;1099;104312;-76
2024/03/24 03:14:02;;;;;;;24.97;11.17;;;;;;;6.87;74.76;99382.23;123454;1099;104421;-75
2024/03/24 03:16:33;;;;;;;22.93;11.43;;;;;;;6.89;75.08;99379.68;123490;1099;104246;-75
2024/03/24 03:19:05;;;;;;;23.37;11.57;;;;;;;6.90;74.84;99371.91;123458;1099;104264;-75
2024/03/24 03:21:36;;;;;;;23.20;11.50;;;;;;;6.91;75.28;99365.87;123462;1099;104248;-75
2024/03/24 03:24:09;;;;;;;22.30;11.03;;;;;;;6.92;75.32;99364.13;123395;1099;104450;-75
2024/03/24 03:26:40;;;;;;;21.10;10.33;;;;;;;6.91;75.17;99362.38;123410;1099;104274;-75
2024/03/24 03:29:12;;;;;;;23.20;11.30;;;;;;;6.91;75.18;99362.38;123572;1099;104304;-75
2024/03/24 03:31:43;;;;;;;22.40;11.30;;;;;;;6.91;75.34;99378.03;123382;1099;104300;-75
2024/03/24 03:34:14;;;;;;;24.23;11.77;;;;;;;6.91;75.50;99380.64;123429;1099;104366;-75
2024/03/24 03:36:45;;;;;;;22.03;11.20;;;;;;;6.91;75.36;99380.64;123375;1099;104290;-76
2024/03/24 03:39:17;;;;;;;24.93;11.23;;;;;;;6.90;75.47;99381.47;123372;1099;104345;-75
2024/03/24 03:41:48;;;;;;;21.70;10.40;;;;;;;6.91;75.22;99367.60;123462;1099;104248;-76
2024/03/24 03:44:19;;;;;;;23.70;12.03;;;;;;;6.92;75.32;99370.26;123428;1099;104348;-75
2024/03/24 03:46:51;;;;;;;23.47;10.50;;;;;;;6.93;75.49;99371.13;123158;1099;104389;-74
2024/03/24 03:49:22;;;;;;;23.17;10.53;;;;;;;6.95;75.52;99375.57;123271;1099;104399;-75
2024/03/24 03:51:56;;;;;;;22.40;11.20;;;;;;;6.95;75.58;99372.05;123422;1099;104332;-76
2024/03/24 03:54:27;;;;;;;23.70;11.53;;;;;;;6.94;75.41;99363.36;123599;1098;104329;-76
2024/03/24 03:56:59;;;;;;;22.77;10.90;;;;;;;6.96;75.18;99352.97;123367;1098;104245;-75
2024/03/24 03:59:30;;;;;;;24.57;11.30;;;;;;;6.95;75.21;99356.41;123539;1099;104331;-76
2024/03/24 04:02:02;;;;;;;23.60;10.93;;;;;;;6.93;75.58;99345.92;123400;1099;104289;-76
2024/03/24 04:04:33;;;;;;;22.27;10.50;;;;;;;6.92;75.52;99351.09;123474;1099;104354;-76
2024/03/24 04:07:05;;;;;;;21.97;9.87;;;;;;;6.92;75.45;99346.78;123399;1098;104283;-75
2024/03/24 04:09:36;;;;;;;21.70;10.90;;;;;;;6.92;75.17;99354.61;123128;1099;110870;-76
2024/03/24 04:12:09;;;;;;;23.40;10.63;;;;;;;6.94;75.25;99354.66;123520;1099;104325;-76
2024/03/24 04:14:40;;;;;;;23.43;10.47;;;;;;;6.93;75.35;99345.92;123440;1099;104332;-76
2024/03/24 04:17:13;;;;;;;22.33;10.30;;;;;;;6.92;75.44;99343.27;123321;1099;104198;-75
2024/03/24 04:19:44;;;;;;;21.77;10.70;;;;;;;6.94;75.46;99341.62;123536;1099;104270;-75
2024/03/24 04:22:16;;;;;;;23.10;11.57;;;;;;;6.97;75.82;99339.98;123468;1099;104291;-75
2024/03/24 04:24:48;;;;;;;23.53;10.77;;;;;;;7.01;75.84;99348.78;123552;1099;104293;-76
2024/03/24 04:27:20;;;;;;;22.90;10.50;;;;;;;7.05;75.75;99345.44;123512;1099;104204;-76
2024/03/24 04:29:51;;;;;;;23.53;11.03;;;;;;;7.09;75.94;99357.75;123614;1099;107966;-76
2024/03/24 04:32:22;;;;;;;21.17;10.13;;;;;;;7.15;75.57;99352.73;123428;1098;104735;-75
2024/03/24 04:34:53;;;;;;;23.47;10.50;;;;;;;7.22;75.86;99347.70;123672;1099;104331;-74
2024/03/24 04:37:27;;;;;;;25.82;11.25;;;;;;;7.27;75.57;99352.20;123582;1099;104252;-74
2024/03/24 04:40:01;;;;;;;23.13;10.27;;;;;;;7.33;75.77;99349.78;123211;1099;104686;-76
2024/03/24 04:42:34;;;;;;;22.40;10.37;;;;;;;7.38;75.49;99353.40;123742;1099;104357;-77
2024/03/24 04:45:07;;;;;;;22.37;10.30;;;;;;;7.42;75.30;99351.79;123669;1099;104259;-74
2024/03/24 04:47:39;;;;;;;22.22;10.35;;;;;;;7.46;75.57;99351.02;123484;1099;104402;-75
2024/03/24 04:50:12;;;;;;;23.33;11.07;;;;;;;7.49;75.47;99353.72;123451;1099;104254;-75
2024/03/24 04:52:43;;;;;;;21.07;9.40;;;;;;;7.53;75.58;99355.59;123475;1099;104303;-75
2024/03/24 04:55:15;;;;;;;21.27;9.47;;;;;;;7.59;75.89;99353.99;123452;1099;104291;-74
2024/03/24 04:57:46;;;;;;;21.17;9.77;;;;;;;7.63;75.33;99363.70;123446;1099;104267;-75
2024/03/24 05:00:19;;;;;;;19.67;9.50;;;;;;;7.69;75.37;99363.88;123412;1098;104699;-75
2024/03/24 05:02:51;;;;;;;20.93;10.43;;;;;;;7.75;75.72;99366.67;123491;1098;104389;-74
2024/03/24 05:05:22;;;;;;;22.20;10.27;;;;;;;7.81;75.86;99372.06;123430;1099;104351;-74
2024/03/24 05:07:53;;;;;;;21.70;10.30;;;;;;;7.85;75.76;99373.94;123414;1099;104363;-75
2024/03/24 05:10:25;;;;;;;20.37;9.33;;;;;;;7.92;75.64;99365.41;123448;1099;104351;-75
2024/03/24 05:12:56;;;;;;;22.07;9.83;;;;;;;8.01;75.69;99363.89;123417;1099;104335;-74
2024/03/24 05:15:27;;;;;;;21.45;10.20;;;;;;;8.09;75.17;99362.39;123180;1099;104256;-76
2024/03/24 05:18:01;;;;;;;21.63;8.90;;;;;;;8.16;75.04;99358.21;123472;1099;104346;-74
2024/03/24 05:20:34;;;;;;;20.97;9.80;;;;;;;8.22;75.04;99366.22;123451;1099;104333;-75
2024/03/24 05:23:06;;;;;;;19.47;8.90;;;;;;;8.27;75.24;99364.60;123432;1099;104392;-75
2024/03/24 05:25:41;;;;;;;19.93;9.40;;;;;;;8.34;74.94;99369.16;123503;1099;104274;-74
2024/03/24 05:28:12;;;;;;;20.63;9.63;;;;;;;8.47;74.62;99369.52;123526;1099;104275;-75
2024/03/24 05:30:44;;;;;;;23.65;9.85;;;;;;;8.61;74.73;99368.14;123427;1099;104325;-75
2024/03/24 05:33:15;;;;;;;19.15;9.70;;;;;;;8.77;75.09;99372.02;123394;1099;104322;-73
2024/03/24 05:35:47;;;;;;;24.00;10.07;;;;;;;8.91;75.42;99364.50;123552;1099;104325;-74
2024/03/24 05:38:18;;;;;;;23.10;9.30;;;;;;;9.05;74.81;99357.86;123460;1099;104204;-74
2024/03/24 05:40:57;;;;;;;19.17;8.87;;;;;;;9.19;75.25;99363.41;123424;1099;104352;-74
2024/03/24 05:43:28;;;;;;;18.20;8.75;;;;;;;9.30;75.41;99353.19;123565;1099;104286;-74
2024/03/24 05:45:59;;;;;;;22.00;9.40;;;;;;;9.40;75.18;99351.69;123455;1099;104322;-76
2024/03/24 05:48:31;;;;;;;20.83;9.40;;;;;;;9.45;74.89;99350.91;123440;1099;104355;-74
2024/03/24 05:51:04;;;;;;;20.57;9.23;;;;;;;9.46;74.62;99346.58;123222;1099;104444;-75
2024/03/24 05:53:35;;;;;;;16.80;8.87;;;;;;;9.44;74.40;99349.17;123492;1098;104243;-75
2024/03/24 05:56:08;;;;;;;20.83;9.70;;;;;;;9.35;72.05;99349.84;123377;1099;104379;-75
2024/03/24 05:58:40;;;;;;;21.57;9.05;;;;;;;9.34;73.54;99348.06;123446;1098;104377;-74
2024/03/24 06:01:12;;;;;;;24.27;9.73;;;;;;;9.38;73.46;99356.89;123388;1098;104341;-75
2024/03/24 06:03:43;;;;;;;19.10;9.00;;;;;;;9.44;73.50;99356.12;123792;1099;104428;-73
2024/03/24 06:06:14;;;;;;;22.10;9.07;;;;;;;9.52;73.75;99363.30;123670;1099;104376;-73
2024/03/24 06:08:46;;;;;;;17.57;8.97;;;;;;;9.60;73.52;99359.95;123622;1098;104299;-74
2024/03/24 06:11:17;;;;;;;19.77;8.17;;;;;;;9.70;74.15;99359.30;123527;1099;104959;-73
2024/03/24 06:13:49;;;;;;;21.67;9.10;;;;;;;9.81;74.07;99364.77;123649;1099;104271;-74
2024/03/24 06:16:20;;;;;;;19.80;8.93;;;;;;;9.92;73.97;99373.72;123485;1099;104348;-75
2024/03/24 06:18:52;;;;;;;18.63;8.70;;;;;;;10.03;74.02;99366.94;123480;1099;104242;-75
2024/03/24 06:21:24;;;;;;;19.00;8.50;;;;;;;10.18;73.31;99360.25;123228;1099;104276;-75
2024/03/24 06:23:56;;;;;;;18.97;8.23;;;;;;;10.31;73.39;99362.23;123514;1099;104245;-75
2024/03/24 06:26:28;;;;;;;17.20;8.13;;;;;;;10.39;72.97;99371.18;123499;1098;104380;-75
2024/03/24 06:29:02;;;;;;;15.03;7.73;;;;;;;10.46;72.24;99361.67;123566;1099;104251;-75
2024/03/24 06:31:37;;;;;;;17.43;7.70;;;;;;;10.61;72.46;99368.91;123525;1098;104373;-74
2024/03/24 06:34:09;;;;;;;16.90;8.23;;;;;;;10.71;72.27;99355.11;123465;1098;104252;-75
2024/03/24 06:36:41;;;;;;;19.07;7.53;;;;;;;10.88;71.83;99365.02;123601;1099;104753;-76
2024/03/24 06:39:13;;;;;;;18.97;8.33;;;;;;;11.02;71.36;99359.98;123493;1099;104338;-76
2024/03/24 06:41:45;;;;;;;17.20;8.03;;;;;;;11.18;70.58;99355.84;123391;1099;104309;-74
2024/03/24 06:44:17;;;;;;;17.07;7.67;;;;;;;11.32;71.06;99356.92;123707;1099;104319;-75
2024/03/24 06:46:48;;;;;;;18.47;8.03;;;;;;;11.47;70.27;99353.64;123731;1099;104696;-75
2024/03/24 06:49:20;;;;;;;18.20;7.17;;;;;;;11.66;70.42;99352.13;123237;1099;104355;-75
2024/03/24 06:51:51;;;;;;;17.57;8.03;;;;;;;11.84;69.88;99351.45;123660;1099;104265;-75
2024/03/24 06:54:22;;;;;;;18.07;7.77;;;;;;;12.04;70.15;99354.36;123437;1099;104389;-74
2024/03/24 06:56:54;;;;;;;15.50;7.60;;;;;;;12.26;69.86;99349.34;123449;1099;104322;-75
2024/03/24 06:59:25;;;;;;;17.83;7.33;;;;;;;12.52;70.46;99350.47;123446;1099;104442;-74
2024/03/24 07:01:57;;;;;;;16.97;7.40;;;;;;;12.77;69.85;99343.67;123392;1099;104319;-73
2024/03/24 07:04:30;;;;;;;15.93;7.10;;;;;;;13.02;70.12;99348.27;123202;1099;104625;-74
2024/03/24 07:07:01;;;;;;;14.95;7.50;;;;;;;13.23;69.29;99347.51;123531;1099;104249;-74
2024/03/24 07:09:33;;;;;;;19.53;8.17;;;;;;;13.34;67.05;99340.61;123644;1099;104325;-74
2024/03/24 07:12:04;;;;;;;18.73;7.77;;;;;;;13.39;66.11;99338.00;123715;1099;104407;-74
2024/03/24 07:14:36;;;;;;;17.20;7.60;;;;;;;13.50;67.67;99332.80;123440;1099;104466;-74
2024/03/24 07:17:07;;;;;;;15.63;7.27;;;;;;;13.64;66.89;99329.33;123888;1099;104254;-74
2024/03/24 07:19:38;;;;;;;16.00;7.03;;;;;;;13.87;66.77;99336.47;123534;1099;104264;-74
2024/03/24 07:22:10;;;;;;;16.07;7.70;;;;;;;14.02;66.59;99335.63;123482;1099;104259;-73
2024/03/24 07:24:41;;;;;;;16.60;7.25;;;;;;;14.19;66.07;99339.21;123532;1099;104220;-74
2024/03/24 07:27:13;;;;;;;16.00;7.10;;;;;;;14.35;65.10;99331.30;123440;1099;104352;-74
2024/03/24 07:29:44;;;;;;;14.40;6.87;;;;;;;14.36;64.22;99338.34;123464;1099;104385;-74
2024/03/24 07:32:15;;;;;;;15.80;7.23;;;;;;;14.43;63.50;99331.31;123350;1099;104281;-74
2024/03/24 07:34:47;;;;;;;15.17;7.13;;;;;;;14.46;64.34;99326.03;123429;1099;104229;-74
2024/03/24 07:37:19;;;;;;;12.25;6.50;;;;;;;14.54;63.59;99326.95;123414;1099;104318;-75
2024/03/24 07:39:50;;;;;;;13.67;6.67;;;;;;;14.62;63.65;99324.34;123133;1099;104456;-73
2024/03/24 07:42:21;;;;;;;13.37;6.50;;;;;;;14.70;64.61;99320.81;123423;1099;104369;-74
2024/03/24 07:44:53;;;;;;;13.03;6.73;;;;;;;14.70;61.63;99314.66;123489;1099;104389;-73
2024/03/24 07:47:26;;;;;;;15.63;7.13;;;;;;;14.63;61.99;99321.70;123442;1099;104322;-74
2024/03/24 07:49:58;;;;;;;17.13;7.43;;;;;;;14.58;62.55;99318.13;123561;1099;104352;-74
2024/03/24 07:52:29;;;;;;;15.63;7.60;;;;;;;14.58;61.97;99320.77;122992;1099;104378;-74
2024/03/24 07:55:00;;;;;;;13.97;7.10;;;;;;;14.53;62.05;99309.34;123434;1099;104317;-75
2024/03/24 07:57:32;;;;;;;15.53;7.70;;;;;;;14.51;61.53;99316.39;123419;1099;104268;-74
2024/03/24 08:00:04;;;;;;;17.53;7.00;;;;;;;14.47;62.30;99311.97;123433;1099;104265;-73
2024/03/24 08:02:44;;;;;;;13.30;6.80;;;;;;;14.44;62.12;99320.75;123500;1098;104734;-74
2024/03/24 08:05:16;;;;;;;15.40;6.97;;;;;;;14.42;61.67;99319.02;123334;1099;104632;-73
2024/03/24 08:07:47;;;;;;;14.67;6.93;;;;;;;14.38;61.36;99324.29;123151;1099;104277;-74
2024/03/24 08:10:19;;;;;;;11.67;6.50;;;;;;;14.38;60.79;99313.73;123544;1099;104255;-75
2024/03/24 08:12:50;;;;;;;14.77;6.87;;;;;;;14.34;60.78;99317.23;123377;1099;104242;-74
2024/03/24 08:15:22;;;;;;;15.07;6.80;;;;;;;14.34;60.83;99322.52;123135;1099;104431;-74
2024/03/24 08:17:53;;;;;;;15.03;7.10;;;;;;;14.30;60.80;99323.37;123427;1099;104334;-74
2024/03/24 08:20:25;;;;;;;13.40;6.60;;;;;;;14.27;60.44;99312.81;123437;1099;104725;-74
2024/03/24 08:22:56;;;;;;;15.13;7.37;;;;;;;14.26;60.22;99313.71;123447;1099;104277;-74
2024/03/24 08:25:28;;;;;;;15.20;6.83;;;;;;;14.24;59.54;99299.61;123481;1099;104248;-75
2024/03/24 08:28:00;;;;;;;15.50;7.00;;;;;;;14.29;60.52;99303.16;123419;1098;104378;-74
2024/03/24 08:30:31;;;;;;;15.35;7.10;;;;;;;14.36;59.38;99306.68;123391;1099;104316;-75
2024/03/24 08:33:02;;;;;;;14.87;7.50;;;;;;;14.44;59.41;99311.97;123377;1099;104274;-73
2024/03/24 08:35:41;;;;;;;15.43;6.63;;;;;;;14.59;59.81;99306.70;123401;1099;104255;-74
2024/03/24 08:38:12;;;;;;;16.27;7.13;;;;;;;14.76;59.72;99298.81;123476;1098;104255;-74
2024/03/24 08:40:44;;;;;;;15.03;7.20;;;;;;;14.91;60.15;99300.55;123507;1099;104319;-75
2024/03/24 08:43:15;;;;;;;15.10;7.30;;;;;;;15.06;59.94;99302.30;123407;1099;104412;-74
2024/03/24 08:45:49;;;;;;;13.17;6.70;;;;;;;15.18;59.60;99289.06;123586;1099;104652;-73
2024/03/24 08:48:30;;;;;;;14.37;7.10;;;;;;;15.22;58.63;99288.19;123512;1099;104268;-74
2024/03/24 08:51:05;;;;;;;16.07;6.73;;;;;;;15.22;57.69;99284.64;123772;1099;104342;-75
2024/03/24 08:53:40;;;;;;;14.20;6.60;;;;;;;15.31;57.83;99278.47;123454;1098;104296;-75
2024/03/24 08:56:12;;;;;;;13.07;6.63;;;;;;;15.35;57.31;99277.55;123469;1099;104393;-75
2024/03/24 08:58:45;;;;;;;15.93;7.07;;;;;;;15.43;58.11;99274.01;123519;1099;104329;-74
2024/03/24 09:01:18;;;;;;;20.73;6.67;;;;;;;15.52;58.20;99267.82;123434;1099;104626;-76
2024/03/24 09:03:50;;;;;;;15.13;6.80;;;;;;;15.63;57.87;99257.20;123460;1099;104229;-73
2024/03/24 09:06:21;;;;;;;18.03;6.83;;;;;;;15.71;58.32;99251.88;123439;1098;104249;-75
2024/03/24 09:08:59;;;;;;;14.13;6.40;;;;;;;15.77;58.02;99249.23;123410;1098;104370;-75
2024/03/24 09:11:47;;;;;;;14.07;6.60;;;;;;;15.76;57.26;99245.65;123434;1099;104322;-75
2024/03/24 09:14:38;;;;;;;14.47;6.87;;;;;;;15.68;55.92;99239.53;123498;1099;104348;-74
2024/03/24 09:17:10;;;;;;;12.73;6.13;;;;;;;15.74;56.47;99233.34;123590;1099;104268;-74
2024/03/24 09:19:41;;;;;;;13.90;6.53;;;;;;;15.75;56.60;99235.08;123521;1099;104264;-74
2024/03/24 09:22:13;;;;;;;14.33;6.43;;;;;;;15.74;56.43;99230.70;123433;1099;104323;-74
2024/03/24 09:24:44;;;;;;;13.37;6.53;;;;;;;15.76;56.24;99221.84;123411;1099;106852;-74
2024/03/24 09:27:15;;;;;;;15.03;6.40;;;;;;;15.76;56.42;99219.20;123506;1099;104612;-74
2024/03/24 09:29:47;;;;;;;13.27;6.60;;;;;;;15.73;55.96;99203.36;123491;1099;104361;-74
2024/03/24 09:32:18;;;;;;;15.27;6.90;;;;;;;15.72;55.74;99217.48;123528;1099;104352;-75
2024/03/24 09:34:51;;;;;;;13.13;6.70;;;;;;;15.68;56.13;99218.38;123444;1099;104370;-75
2024/03/24 09:37:23;;;;;;;15.03;6.15;;;;;;;15.64;55.82;99214.88;123534;1099;104357;-75
2024/03/24 09:39:55;;;;;;;13.10;5.83;;;;;;;15.59;55.31;99207.84;123493;1099;104287;-74
2024/03/24 09:42:28;;;;;;;11.60;6.00;;;;;;;15.57;55.22;99210.50;123473;1099;104284;-74
2024/03/24 09:45:03;;;;;;;10.13;5.63;;;;;;;15.57;55.21;99209.64;123502;1099;104241;-74
2024/03/24 09:47:37;;;;;;;12.37;6.00;;;;;;;15.57;54.51;99207.86;123486;1099;104408;-74
2024/03/24 09:50:11;;;;;;;14.00;5.93;;;;;;;15.60;55.25;99197.27;123506;1099;104374;-74
2024/03/24 09:52:43;;;;;;;12.80;5.67;;;;;;;15.67;54.21;99187.52;123501;1099;104720;-74
2024/03/24 09:55:16;;;;;;;12.60;5.90;;;;;;;15.75;54.02;99195.41;123500;1099;104171;-75
2024/03/24 09:57:48;;;;;;;11.05;5.40;;;;;;;15.90;54.61;99191.84;123250;1099;104217;-73
2024/03/24 10:00:21;;;;;;;11.03;5.40;;;;;;;16.06;54.08;99196.11;123528;1099;104390;-74
2024/03/24 10:02:53;;;;;;;11.43;5.70;;;;;;;16.20;53.81;99174.83;123560;1099;104284;-73
2024/03/24 10:05:25;;;;;;;9.37;5.23;;;;;;;16.33;54.42;99180.89;123533;1098;105578;-74
2024/03/24 10:08:01;;;;;;;10.20;5.07;;;;;;;16.44;53.50;99168.45;123459;1099;104315;-74
2024/03/24 10:10:32;;;;;;;10.17;5.40;;;;;;;16.54;53.95;99170.10;123540;1099;104274;-74
2024/03/24 10:13:04;;;;;;;11.13;5.10;;;;;;;16.59;53.07;99166.55;123480;1098;104400;-74
2024/03/24 10:15:35;;;;;;;14.33;5.10;;;;;;;16.66;53.51;99169.11;123542;1099;104271;-75
2024/03/24 10:18:09;;;;;;;10.97;5.40;;;;;;;16.79;53.61;99167.20;123465;1099;104267;-74
2024/03/24 10:20:41;;;;;;;10.13;5.00;;;;;;;16.88;52.14;99169.78;123764;1098;104344;-73
2024/03/24 10:23:14;;;;;;;16.40;5.45;;;;;;;16.98;52.33;99165.25;123591;1099;104341;-74
2024/03/24 10:25:58;;;;;;;10.13;5.10;;;;;;;17.05;52.82;99171.38;123528;1099;104270;-73
2024/03/24 10:28:29;;;;;;;10.63;4.85;;;;;;;17.12;52.49;99166.88;123544;1098;104284;-75
2024/03/24 10:31:09;;;;;;;9.07;5.00;;;;;;;17.15;51.11;99161.53;123560;1099;104242;-73
2024/03/24 10:33:42;;;;;;;9.07;4.90;;;;;;;17.11;50.72;99152.75;123601;1099;104264;-75
2024/03/24 10:36:14;;;;;;;9.33;4.80;;;;;;;17.11;49.96;99150.11;123641;1099;104249;-73
2024/03/24 10:38:53;;;;;;;8.07;4.07;;;;;;;17.16;48.81;99134.14;123554;1099;104418;-74
2024/03/24 10:41:29;;;;;;;8.07;4.60;;;;;;;17.12;49.12;99140.37;123696;1099;104265;-74
2024/03/24 10:44:05;;;;;;;8.23;4.20;;;;;;;17.19;49.53;99137.62;123506;1099;104315;-72
2024/03/24 10:46:39;;;;;;;11.03;4.73;;;;;;;17.28;49.67;99127.78;123486;1099;104219;-73
2024/03/24 10:49:14;;;;;;;7.97;4.67;;;;;;;17.23;45.65;99131.39;123548;1099;104331;-73
2024/03/24 10:51:49;;;;;;;10.03;4.80;;;;;;;17.28;49.22;99138.39;123490;1098;104322;-76
2024/03/24 10:54:25;;;;;;;9.53;4.90;;;;;;;17.33;49.13;99121.53;123533;1099;104732;-74
2024/03/24 10:57:05;;;;;;;9.20;4.73;;;;;;;17.45;49.57;99127.55;123728;1099;104280;-74
2024/03/24 10:59:39;;;;;;;9.87;4.83;;;;;;;17.51;49.28;99133.64;123677;1098;104272;-74
2024/03/24 11:02:20;;;;;;;10.45;4.60;;;;;;;17.50;48.62;99141.61;123460;1099;104207;-73
2024/03/24 11:05:01;;;;;;;7.27;4.60;;;;;;;17.48;48.82;99143.42;123518;1099;104377;-74
2024/03/24 11:07:37;;;;;;;10.80;4.57;;;;;;;17.59;49.78;99144.13;123591;1098;104255;-74
2024/03/24 11:10:20;;;;;;;8.97;4.80;;;;;;;17.65;48.88;99152.00;123453;1099;104271;-75
2024/03/24 11:12:54;;;;;;;8.27;4.53;;;;;;;17.67;48.91;99150.23;123708;1099;104175;-73
2024/03/24 11:15:26;;;;;;;13.63;5.07;;;;;;;17.63;48.35;99139.69;123655;1099;104270;-74
2024/03/24 11:17:59;;;;;;;9.70;4.30;;;;;;;17.60;48.26;99135.29;123687;1099;104413;-73
2024/03/24 11:20:31;;;;;;;10.47;5.13;;;;;;;17.63;48.56;99119.33;123610;1099;104220;-73
2024/03/24 11:23:03;;;;;;;8.20;4.60;;;;;;;17.68;47.50;99113.95;123545;1098;104342;-73
2024/03/24 11:25:39;;;;;;;8.30;4.43;;;;;;;17.72;47.79;99103.27;123450;1099;104724;-73
2024/03/24 11:28:11;;;;;;;10.73;4.47;;;;;;;17.74;47.86;99103.25;123530;1099;104249;-74
2024/03/24 11:30:42;;;;;;;9.73;5.07;;;;;;;17.75;48.23;99110.32;123471;1099;104386;-74
2024/03/24 11:33:17;;;;;;;10.13;4.90;;;;;;;17.71;48.04;99098.86;123492;1099;104689;-72
2024/03/24 11:35:49;;;;;;;11.60;4.77;;;;;;;17.65;47.59;99098.09;123557;1099;104316;-73